Time;durP1;ratioP1;P1;durP2;ratioP2;P2;SDS_P1;SDS_P2;PMS_P1;PMS_P2;Temp;Humidity;BMP_temperature;BMP_pressure;BME280_temperature;BME280_humidity;BME280_pressure;Samples;Min_cycle;Max_cycle;Signal;HPM_P1;HPM_P2
2023/04/03 00:00:26;;;;;;;0.30;0.30;;;1.20;99.90;;;;;;5064314;28;20462;-83
2023/04/03 00:02:52;;;;;;;0.88;0.28;;;1.20;99.90;;;;;;5059148;28;20071;-84
2023/04/03 00:05:17;;;;;;;0.40;0.20;;;1.10;99.90;;;;;;5064364;28;20045;-83
2023/04/03 00:07:43;;;;;;;0.90;0.30;;;1.10;99.90;;;;;;5057627;28;20064;-83
2023/04/03 00:10:09;;;;;;;0.60;0.30;;;1.10;99.90;;;;;;5058006;28;20045;-83
2023/04/03 00:12:35;;;;;;;0.50;0.30;;;1.10;99.90;;;;;;5056004;28;20482;-83
2023/04/03 00:15:00;;;;;;;1.08;0.30;;;1.10;99.90;;;;;;5065397;28;20051;-83
2023/04/03 00:17:26;;;;;;;0.98;0.30;;;1.10;99.90;;;;;;5062924;28;20053;-83
2023/04/03 00:19:51;;;;;;;0.73;0.32;;;1.00;99.90;;;;;;5065322;28;20158;-83
2023/04/03 00:22:17;;;;;;;1.25;0.40;;;1.00;99.90;;;;;;5065348;28;20128;-83
2023/04/03 00:24:43;;;;;;;0.95;0.30;;;1.00;99.90;;;;;;5062700;28;20051;-83
2023/04/03 00:27:08;;;;;;;0.77;0.30;;;1.80;99.90;;;;;;5059525;28;20033;-83
2023/04/03 00:29:34;;;;;;;0.55;0.30;;;1.00;99.90;;;;;;5062343;28;20131;-84
2023/04/03 00:32:00;;;;;;;0.30;0.30;;;0.90;99.90;;;;;;5065423;28;20505;-83
2023/04/03 00:34:26;;;;;;;0.75;0.30;;;0.90;99.90;;;;;;5064167;28;20449;-83
2023/04/03 00:36:51;;;;;;;0.93;0.30;;;0.90;99.90;;;;;;5061508;28;20064;-83
2023/04/03 00:39:17;;;;;;;0.68;0.30;;;0.90;99.90;;;;;;5060383;28;20072;-83
2023/04/03 00:41:42;;;;;;;0.30;0.25;;;0.90;99.90;;;;;;5061791;28;20539;-83
2023/04/03 00:44:33;;;;;;;1.42;0.30;;;0.90;99.90;;;;;;5061992;28;20440;-83
2023/04/03 00:47:00;;;;;;;0.90;0.38;;;0.90;99.90;;;;;;5054562;28;20040;-83
2023/04/03 00:49:27;;;;;;;0.82;0.30;;;0.90;99.90;;;;;;5067747;28;20388;-82
2023/04/03 00:51:53;;;;;;;0.60;0.30;;;0.80;99.90;;;;;;5061731;28;20049;-83
2023/04/03 00:54:19;;;;;;;1.80;0.40;;;0.80;99.90;;;;;;5061093;28;20152;-83
2023/04/03 00:56:45;;;;;;;1.65;0.30;;;0.70;99.90;;;;;;5043995;28;20109;-84
2023/04/03 00:59:18;;;;;;;0.60;0.40;;;0.70;99.90;;;;;;5043470;28;20041;-83
2023/04/03 01:01:44;;;;;;;0.43;0.30;;;0.60;99.90;;;;;;5062048;28;20033;-82
2023/04/03 01:04:32;;;;;;;0.50;0.35;;;0.60;99.90;;;;;;5058921;28;20051;-84
2023/04/03 01:07:06;;;;;;;0.77;0.28;;;0.60;99.90;;;;;;5056278;28;20049;-84
2023/04/03 01:09:32;;;;;;;0.40;0.20;;;0.60;99.90;;;;;;5064679;28;20048;-83
2023/04/03 01:12:35;;;;;;;0.95;0.40;;;1.00;99.90;;;;;;5060675;28;20051;-83
2023/04/03 01:15:08;;;;;;;2.10;0.50;;;0.50;99.90;;;;;;5038680;28;20759;-83
2023/04/03 01:17:38;;;;;;;0.38;0.30;;;0.40;99.90;;;;;;5037872;28;20497;-83
2023/04/03 01:20:31;;;;;;;0.95;0.43;;;0.40;99.90;;;;;;5022202;28;20037;-83
2023/04/03 01:23:20;;;;;;;2.10;0.45;;;0.40;99.90;;;;;;5022108;28;20056;-83
2023/04/03 01:25:54;;;;;;;1.65;0.30;;;0.30;99.90;;;;;;5039159;28;20506;-82
2023/04/03 01:28:27;;;;;;;0.52;0.30;;;0.30;99.90;;;;;;5039103;28;20451;-83
2023/04/03 01:31:08;;;;;;;0.50;0.20;;;0.20;99.90;;;;;;5045437;28;20045;-82
2023/04/03 01:33:35;;;;;;;0.90;0.38;;;0.20;99.90;;;;;;5034865;28;20128;-83
2023/04/03 01:36:01;;;;;;;1.75;0.30;;;0.10;99.90;;;;;;5038611;28;20049;-82
2023/04/03 01:38:27;;;;;;;0.95;0.35;;;0.10;99.90;;;;;;5035916;28;20037;-83
2023/04/03 01:40:52;;;;;;;1.25;0.40;;;0.10;99.90;;;;;;5040867;28;20471;-82
2023/04/03 01:43:18;;;;;;;1.35;0.40;;;0.00;99.90;;;;;;5021124;28;20054;-83
2023/04/03 01:45:49;;;;;;;0.45;0.30;;;0.00;99.90;;;;;;5022469;28;20080;-83
2023/04/03 01:48:15;;;;;;;2.28;0.40;;;0.00;99.90;;;;;;5034067;28;20049;-83
2023/04/03 01:50:41;;;;;;;1.40;0.50;;;-0.10;99.90;;;;;;5060401;28;20448;-83
2023/04/03 01:53:06;;;;;;;1.15;0.50;;;-0.10;99.90;;;;;;5064167;28;20056;-82
2023/04/03 01:55:32;;;;;;;0.90;0.40;;;-0.10;99.90;;;;;;5060358;28;20035;-83
2023/04/03 01:57:58;;;;;;;0.55;0.30;;;-0.10;99.90;;;;;;5059700;28;20041;-83
2023/04/03 02:00:23;;;;;;;2.47;0.40;;;-0.20;99.90;;;;;;5059128;28;20049;-83
2023/04/03 02:02:49;;;;;;;0.85;0.40;;;-0.20;99.90;;;;;;5059331;28;20040;-82
2023/04/03 02:05:15;;;;;;;0.80;0.45;;;0.20;99.90;;;;;;5060292;28;20436;-83
2023/04/03 02:07:41;;;;;;;0.60;0.25;;;0.30;99.90;;;;;;5058193;28;20079;-83
2023/04/03 02:10:07;;;;;;;2.85;0.40;;;-0.30;99.90;;;;;;5055326;28;20048;-83
2023/04/03 02:12:33;;;;;;;1.40;0.50;;;-0.20;99.90;;;;;;5059072;28;20041;-84
2023/04/03 02:14:58;;;;;;;2.35;0.50;;;0.70;99.90;;;;;;5060019;28;20393;-83
2023/04/03 02:17:24;;;;;;;0.85;0.30;;;-0.30;99.90;;;;;;5063179;28;20400;-83
2023/04/03 02:19:50;;;;;;;1.52;1.15;;;-0.20;99.90;;;;;;5063645;28;20501;-83
2023/04/03 02:22:15;;;;;;;1.67;0.45;;;-0.20;99.90;;;;;;5061088;28;20101;-83
2023/04/03 02:24:41;;;;;;;0.55;0.30;;;-0.20;99.90;;;;;;5054001;28;20086;-83
2023/04/03 02:27:07;;;;;;;2.55;0.65;;;0.40;99.90;;;;;;5068816;28;20049;-83
2023/04/03 02:29:32;;;;;;;0.90;0.30;;;-0.30;99.90;;;;;;5066651;28;20037;-83
2023/04/03 02:31:58;;;;;;;1.55;0.30;;;-0.30;99.90;;;;;;5097766;28;20481;-82
2023/04/03 02:34:24;;;;;;;1.08;0.40;;;-0.30;99.90;;;;;;5056412;28;20072;-82
2023/04/03 02:36:50;;;;;;;2.72;0.40;;;-0.30;99.90;;;;;;5064167;28;20128;-83
2023/04/03 02:39:16;;;;;;;0.52;0.32;;;-0.30;99.90;;;;;;5072376;28;20048;-82
2023/04/03 02:41:42;;;;;;;0.95;0.30;;;-0.30;99.90;;;;;;5065996;28;20389;-82
2023/04/03 02:44:10;;;;;;;0.68;0.40;;;-0.40;99.90;;;;;;5063970;28;20079;-82
2023/04/03 02:46:36;;;;;;;4.78;0.70;;;-0.40;99.90;;;;;;5060100;28;20504;-82
2023/04/03 02:49:02;;;;;;;0.43;0.30;;;0.20;99.90;;;;;;5067441;28;20044;-82
2023/04/03 02:51:27;;;;;;;0.30;0.30;;;-0.50;99.90;;;;;;5063714;28;20052;-82
2023/04/03 02:53:53;;;;;;;2.25;0.43;;;-0.50;99.90;;;;;;5061507;28;20052;-82
2023/04/03 02:56:20;;;;;;;2.70;0.40;;;-0.50;99.90;;;;;;5063884;28;20052;-82
2023/04/03 02:58:45;;;;;;;1.05;0.40;;;-0.50;99.90;;;;;;5060534;28;20040;-82
2023/04/03 03:01:12;;;;;;;0.90;0.40;;;0.20;99.90;;;;;;5059159;28;20045;-83
2023/04/03 03:03:37;;;;;;;1.05;0.40;;;-0.70;99.90;;;;;;5055650;28;20421;-82
2023/04/03 03:06:09;;;;;;;1.33;0.35;;;-0.30;99.90;;;;;;5054537;28;20067;-82
2023/04/03 03:08:36;;;;;;;2.00;0.43;;;0.00;99.90;;;;;;5055134;28;20405;-82
2023/04/03 03:11:03;;;;;;;1.80;0.40;;;-0.60;99.90;;;;;;5063549;28;20043;-82
2023/04/03 03:13:29;;;;;;;1.85;0.40;;;-0.60;99.90;;;;;;5069893;28;20083;-82
2023/04/03 03:15:54;;;;;;;1.42;0.38;;;0.00;99.90;;;;;;5063967;28;20060;-82
2023/04/03 03:18:20;;;;;;;0.70;0.30;;;-0.60;99.90;;;;;;5063215;28;20067;-82
2023/04/03 03:20:46;;;;;;;1.75;0.40;;;-0.60;99.90;;;;;;5065357;28;20405;-82
2023/04/03 03:23:12;;;;;;;1.55;0.40;;;0.50;99.90;;;;;;5059237;28;20048;-82
2023/04/03 03:25:39;;;;;;;3.38;0.40;;;-0.60;99.90;;;;;;5053903;28;20040;-82
2023/04/03 03:28:05;;;;;;;4.68;0.40;;;-0.60;99.90;;;;;;5059729;28;20072;-82
2023/04/03 03:30:30;;;;;;;1.85;0.38;;;-0.60;99.90;;;;;;5066555;28;20048;-83
2023/04/03 03:32:56;;;;;;;0.70;0.50;;;0.10;99.90;;;;;;5064763;28;20052;-82
2023/04/03 03:35:22;;;;;;;0.98;0.30;;;-0.60;99.90;;;;;;5064694;28;20488;-83
2023/04/03 03:37:47;;;;;;;2.88;0.50;;;-0.70;99.90;;;;;;5065334;28;20474;-83
2023/04/03 03:40:13;;;;;;;0.52;0.30;;;-0.70;99.90;;;;;;5062977;28;20059;-82
2023/04/03 03:42:39;;;;;;;3.30;0.45;;;-0.60;99.90;;;;;;5062458;28;20037;-83
2023/04/03 03:45:06;;;;;;;1.73;0.43;;;-0.70;99.90;;;;;;5063345;28;20083;-83
2023/04/03 03:47:31;;;;;;;1.63;0.40;;;-0.70;99.90;;;;;;5060358;28;20145;-82
2023/04/03 03:49:57;;;;;;;1.67;0.50;;;-0.70;99.90;;;;;;5056945;28;20426;-82
2023/04/03 03:52:23;;;;;;;0.98;0.30;;;-0.80;99.90;;;;;;5054727;28;20044;-82
2023/04/03 03:54:48;;;;;;;0.50;0.40;;;-0.90;99.90;;;;;;5095096;28;20051;-82
2023/04/03 03:57:15;;;;;;;1.92;0.40;;;-0.90;99.90;;;;;;5097300;28;20139;-82
2023/04/03 03:59:41;;;;;;;0.77;0.40;;;-1.00;99.90;;;;;;5065696;28;20425;-82
2023/04/03 04:02:07;;;;;;;0.75;0.50;;;-1.00;99.90;;;;;;5062398;28;20156;-81
2023/04/03 04:04:33;;;;;;;1.67;0.40;;;-1.00;99.90;;;;;;5065899;28;20509;-82
2023/04/03 04:07:00;;;;;;;1.20;0.40;;;-1.10;99.90;;;;;;5059046;28;20037;-82
2023/04/03 04:09:26;;;;;;;1.35;0.45;;;-1.10;99.90;;;;;;5064072;28;20448;-82
2023/04/03 04:11:52;;;;;;;3.80;0.40;;;-1.00;99.90;;;;;;5060738;28;20044;-82
2023/04/03 04:14:20;;;;;;;2.05;0.40;;;-1.10;99.90;;;;;;5060919;28;20363;-81
2023/04/03 04:16:46;;;;;;;1.15;0.50;;;-1.10;99.90;;;;;;5051975;28;20060;-82
2023/04/03 04:19:12;;;;;;;0.88;0.43;;;-1.10;99.90;;;;;;5062398;28;20080;-82
2023/04/03 04:21:38;;;;;;;1.85;0.63;;;-1.10;99.90;;;;;;5060649;28;20037;-82
2023/04/03 04:24:03;;;;;;;2.03;0.40;;;-1.10;99.90;;;;;;5062284;28;20045;-82
2023/04/03 04:26:29;;;;;;;0.90;0.47;;;-1.10;99.90;;;;;;5062201;28;20417;-81
2023/04/03 04:28:55;;;;;;;0.70;0.40;;;-1.10;99.90;;;;;;5059621;28;20040;-82
2023/04/03 04:31:20;;;;;;;2.17;0.47;;;-1.10;99.90;;;;;;5058664;28;20037;-82
2023/04/03 04:33:46;;;;;;;2.25;0.40;;;-1.10;99.90;;;;;;5060614;28;20040;-82
2023/04/03 04:36:12;;;;;;;1.67;0.52;;;-0.10;99.90;;;;;;5061832;28;20550;-82
2023/04/03 04:38:38;;;;;;;2.47;0.50;;;-1.20;99.90;;;;;;5060292;28;20389;-82
2023/04/03 04:41:05;;;;;;;1.67;0.60;;;-1.20;99.90;;;;;;5061637;28;20045;-82
2023/04/03 04:43:31;;;;;;;2.25;0.40;;;-1.20;99.90;;;;;;5060387;28;20045;-82
2023/04/03 04:46:09;;;;;;;1.98;0.38;;;-1.20;99.90;;;;;;5063416;28;20035;-82
2023/04/03 04:48:35;;;;;;;1.08;0.57;;;-1.20;99.90;;;;;;5059872;28;20051;-82
2023/04/03 04:51:01;;;;;;;0.95;0.50;;;-1.20;99.90;;;;;;5054842;28;20409;-82
2023/04/03 04:53:26;;;;;;;2.10;0.47;;;-1.30;99.90;;;;;;5060245;28;20139;-82
2023/04/03 04:55:53;;;;;;;2.55;0.38;;;-1.30;99.90;;;;;;5060279;28;20049;-82
2023/04/03 04:58:19;;;;;;;0.70;0.30;;;-0.90;99.90;;;;;;5060627;28;20045;-82
2023/04/03 05:00:45;;;;;;;1.75;0.40;;;-1.30;99.90;;;;;;5060436;28;20394;-82
2023/04/03 05:03:11;;;;;;;1.00;0.40;;;-1.40;99.90;;;;;;5061447;28;20048;-82
2023/04/03 05:05:37;;;;;;;0.98;0.43;;;-1.40;99.90;;;;;;5047031;28;20174;-82
2023/04/03 05:08:03;;;;;;;1.08;0.40;;;-1.40;99.90;;;;;;5044160;28;20090;-82
2023/04/03 05:10:30;;;;;;;1.48;0.40;;;-1.50;99.90;;;;;;5062081;28;20441;-82
2023/04/03 05:12:55;;;;;;;2.85;0.50;;;-1.50;99.90;;;;;;5061443;28;20239;-82
2023/04/03 05:15:21;;;;;;;2.63;0.45;;;-1.50;99.90;;;;;;5061324;28;20127;-82
2023/04/03 05:17:47;;;;;;;0.55;0.50;;;-1.50;99.90;;;;;;5061964;28;20158;-82
2023/04/03 05:20:12;;;;;;;2.72;0.43;;;-1.50;99.90;;;;;;5059979;28;20036;-82
2023/04/03 05:22:38;;;;;;;1.13;0.50;;;-1.50;99.90;;;;;;5061949;28;20481;-82
2023/04/03 05:25:05;;;;;;;1.45;0.60;;;-1.30;99.90;;;;;;5058114;28;20088;-82
2023/04/03 05:27:30;;;;;;;1.48;0.50;;;-1.50;99.90;;;;;;5060773;28;20106;-82
2023/04/03 05:29:56;;;;;;;1.13;0.60;;;-1.50;99.90;;;;;;5056133;28;20040;-82
2023/04/03 05:32:23;;;;;;;1.85;0.43;;;-1.50;99.90;;;;;;5064316;28;20128;-83
2023/04/03 05:34:49;;;;;;;2.15;0.50;;;-1.50;99.90;;;;;;5055766;28;20041;-82
2023/04/03 05:37:15;;;;;;;1.27;0.40;;;-1.50;99.90;;;;;;5064128;28;20115;-83
2023/04/03 05:39:40;;;;;;;2.08;0.50;;;-1.50;99.90;;;;;;5056513;28;20045;-82
2023/04/03 05:42:11;;;;;;;0.98;0.40;;;-1.40;99.90;;;;;;5063607;28;20037;-82
2023/04/03 05:44:37;;;;;;;1.63;0.60;;;-1.40;99.90;;;;;;5055668;28;20056;-82
2023/04/03 05:47:03;;;;;;;2.25;0.60;;;-1.40;99.90;;;;;;5062535;28;20040;-83
2023/04/03 05:49:29;;;;;;;3.05;0.50;;;-1.30;99.90;;;;;;5059590;28;20040;-83
2023/04/03 05:51:55;;;;;;;1.33;0.60;;;-1.40;99.90;;;;;;5052320;28;20049;-82
2023/04/03 05:54:24;;;;;;;0.60;0.40;;;-1.30;99.90;;;;;;5059473;28;20406;-83
2023/04/03 05:56:50;;;;;;;2.88;0.57;;;-0.10;99.90;;;;;;5060622;28;20063;-82
2023/04/03 05:59:17;;;;;;;1.52;0.50;;;-1.20;99.90;;;;;;5056846;28;20124;-82
2023/04/03 06:01:43;;;;;;;0.68;0.40;;;-1.20;99.90;;;;;;5063762;28;20401;-82
2023/04/03 06:04:08;;;;;;;2.00;0.50;;;-1.20;99.90;;;;;;5062991;28;20049;-83
2023/04/03 06:06:55;;;;;;;1.08;0.50;;;-0.20;99.90;;;;;;5060452;28;20047;-83
2023/04/03 06:09:26;;;;;;;0.82;0.47;;;-1.00;99.90;;;;;;5061471;28;20063;-83
2023/04/03 06:11:52;;;;;;;0.63;0.40;;;-1.00;99.90;;;;;;5058346;28;20075;-82
2023/04/03 06:14:18;;;;;;;1.45;0.50;;;-0.90;99.90;;;;;;5060572;28;20078;-82
2023/04/03 06:16:45;;;;;;;1.95;0.50;;;-0.30;99.90;;;;;;5060292;28;20051;-83
2023/04/03 06:19:11;;;;;;;1.40;0.50;;;-0.70;99.90;;;;;;5052322;28;20041;-82
2023/04/03 06:21:38;;;;;;;1.80;0.70;;;-0.70;99.90;;;;;;5058821;28;20040;-85
2023/04/03 06:24:04;;;;;;;0.70;0.47;;;0.60;99.90;;;;;;5060562;28;20378;-83
2023/04/03 06:26:30;;;;;;;1.83;0.47;;;-0.40;99.90;;;;;;5059262;28;20048;-82
2023/04/03 06:28:56;;;;;;;0.70;0.40;;;0.00;99.90;;;;;;5084069;28;20512;-82
2023/04/03 06:31:22;;;;;;;1.27;0.50;;;-0.20;99.90;;;;;;5060219;28;20045;-84
2023/04/03 06:33:47;;;;;;;2.17;0.57;;;0.00;99.90;;;;;;5058303;28;20045;-85
2023/04/03 06:36:13;;;;;;;4.18;0.60;;;0.10;99.90;;;;;;5063471;28;20048;-83
2023/04/03 06:38:39;;;;;;;2.15;0.70;;;0.20;99.90;;;;;;5043596;28;20102;-84
2023/04/03 06:41:05;;;;;;;3.33;0.77;;;0.40;99.90;;;;;;5052575;28;20393;-83
2023/04/03 06:43:32;;;;;;;1.05;0.50;;;0.50;99.90;;;;;;5058771;28;20037;-83
2023/04/03 06:45:57;;;;;;;1.08;0.45;;;0.70;99.90;;;;;;5061228;28;20045;-83
2023/04/03 06:48:23;;;;;;;1.85;0.73;;;0.80;99.90;;;;;;5056893;28;20047;-83
2023/04/03 06:50:48;;;;;;;2.53;0.80;;;0.90;99.90;;;;;;5063417;28;20088;-83
2023/04/03 06:53:15;;;;;;;1.33;0.47;;;1.10;99.90;;;;;;5053856;28;20066;-83
2023/04/03 06:55:41;;;;;;;2.88;0.50;;;1.20;99.90;;;;;;5061934;28;20048;-82
2023/04/03 06:58:07;;;;;;;1.30;0.40;;;1.40;99.90;;;;;;5054922;28;20044;-82
2023/04/03 07:00:33;;;;;;;3.63;0.80;;;1.50;99.90;;;;;;5063224;28;20123;-83
2023/04/03 07:02:59;;;;;;;2.50;0.73;;;1.60;99.90;;;;;;5055271;28;20485;-82
2023/04/03 07:05:25;;;;;;;4.07;0.93;;;1.80;99.90;;;;;;5067893;28;20045;-82
2023/04/03 07:07:52;;;;;;;1.42;0.73;;;1.90;99.90;;;;;;5064847;28;20409;-82
2023/04/03 07:10:18;;;;;;;3.35;0.70;;;2.10;99.90;;;;;;5061188;28;20476;-84
2023/04/03 07:12:44;;;;;;;3.33;1.25;;;2.20;99.90;;;;;;5063654;28;20492;-84
2023/04/03 07:15:12;;;;;;;3.17;1.00;;;3.10;99.90;;;;;;5062519;28;20397;-83
2023/04/03 07:17:37;;;;;;;2.92;0.90;;;2.40;99.90;;;;;;5062382;28;20462;-82
2023/04/03 07:20:03;;;;;;;6.90;1.13;;;2.50;99.90;;;;;;5063534;28;20120;-81
2023/04/03 07:22:30;;;;;;;2.97;0.85;;;2.60;99.90;;;;;;5063821;28;20386;-82
2023/04/03 07:24:55;;;;;;;5.50;1.50;;;3.10;99.90;;;;;;5063491;28;20433;-82
2023/04/03 07:27:21;;;;;;;3.17;0.90;;;3.00;99.90;;;;;;5055822;28;20048;-85
2023/04/03 07:29:48;;;;;;;2.80;0.85;;;3.00;99.90;;;;;;5054172;28;20576;-81
2023/04/03 07:32:15;;;;;;;5.30;0.90;;;3.30;99.90;;;;;;5055756;28;20116;-82
2023/04/03 07:34:40;;;;;;;2.50;0.60;;;4.40;99.90;;;;;;5055905;28;20119;-82
2023/04/03 07:37:07;;;;;;;3.53;0.75;;;3.00;99.90;;;;;;5055869;28;20041;-84
2023/04/03 07:39:32;;;;;;;1.10;0.60;;;3.20;99.90;;;;;;5055767;28;20964;-81
2023/04/03 07:41:58;;;;;;;1.67;0.60;;;3.60;99.90;;;;;;5055459;28;20132;-82
2023/04/03 07:44:24;;;;;;;2.05;0.60;;;3.70;99.90;;;;;;5055730;28;20052;-82
2023/04/03 07:46:50;;;;;;;1.48;0.60;;;3.90;99.90;;;;;;5055433;28;20040;-85
2023/04/03 07:49:17;;;;;;;1.80;0.77;;;4.00;99.90;;;;;;5055583;28;20041;-82
2023/04/03 07:51:44;;;;;;;2.45;0.73;;;4.80;99.90;;;;;;5055049;28;20045;-84
2023/04/03 07:54:10;;;;;;;4.88;0.98;;;4.30;99.90;;;;;;5054669;28;20132;-82
2023/04/03 07:56:36;;;;;;;2.72;0.90;;;5.50;99.90;;;;;;5055474;28;20127;-81
2023/04/03 07:59:02;;;;;;;2.95;0.73;;;4.40;99.90;;;;;;5055576;28;20128;-82
2023/04/03 08:01:27;;;;;;;1.75;0.73;;;4.60;99.90;;;;;;5055466;28;20144;-83
2023/04/03 08:03:53;;;;;;;1.63;0.68;;;4.70;99.90;;;;;;5055318;28;20037;-82
2023/04/03 08:06:19;;;;;;;2.33;0.75;;;5.30;99.90;;;;;;5055563;28;20448;-82
2023/04/03 08:08:45;;;;;;;5.93;1.05;;;4.90;99.90;;;;;;5053995;28;20486;-83
2023/04/03 08:11:11;;;;;;;2.22;0.60;;;5.00;99.90;;;;;;5053775;28;20052;-82
2023/04/03 08:13:38;;;;;;;1.70;0.70;;;5.90;99.90;;;;;;5054791;28;20041;-83
2023/04/03 08:16:12;;;;;;;2.95;0.47;;;5.20;99.90;;;;;;5053646;28;20049;-83
2023/04/03 08:18:39;;;;;;;3.80;0.50;;;5.30;99.90;;;;;;5054913;28;20053;-82
2023/04/03 08:21:09;;;;;;;2.15;0.65;;;5.50;99.90;;;;;;5055175;28;20037;-83
2023/04/03 08:23:35;;;;;;;5.15;1.55;;;6.60;99.90;;;;;;5053470;28;20140;-83
2023/04/03 08:26:12;;;;;;;4.95;0.60;;;5.60;99.90;;;;;;5070170;28;20489;-83
2023/04/03 08:28:38;;;;;;;2.28;0.60;;;5.60;99.90;;;;;;5054778;28;20445;-82
2023/04/03 08:31:06;;;;;;;3.45;0.65;;;6.70;99.90;;;;;;5054812;28;20404;-83
2023/04/03 08:33:34;;;;;;;5.07;0.70;;;5.90;99.90;;;;;;5053427;28;20049;-83
2023/04/03 08:35:59;;;;;;;1.40;0.50;;;6.10;99.90;;;;;;5053542;28;20374;-83
2023/04/03 08:38:25;;;;;;;1.83;0.68;;;6.20;99.90;;;;;;5053373;28;20182;-83
2023/04/03 08:41:30;;;;;;;2.08;0.50;;;6.70;99.90;;;;;;5053331;28;20474;-85
2023/04/03 08:44:23;;;;;;;2.45;0.60;;;6.30;99.90;;;;;;5035691;28;20186;-83
2023/04/03 08:47:11;;;;;;;1.83;0.50;;;7.00;99.90;;;;;;5051882;28;20079;-83
2023/04/03 08:49:47;;;;;;;2.33;0.55;;;6.60;99.90;;;;;;5035329;28;20144;-83
2023/04/03 08:52:17;;;;;;;2.17;0.63;;;6.70;99.90;;;;;;5052241;28;20080;-82
2023/04/03 08:54:50;;;;;;;2.50;0.57;;;7.70;99.90;;;;;;5051970;28;20049;-83
2023/04/03 08:57:19;;;;;;;1.33;0.43;;;6.90;99.90;;;;;;5035613;28;20116;-83
2023/04/03 08:59:45;;;;;;;0.88;0.40;;;7.50;99.90;;;;;;5051923;28;20045;-84
2023/04/03 09:02:27;;;;;;;3.03;1.05;;;7.20;99.90;;;;;;5035362;28;20053;-83
2023/04/03 09:04:54;;;;;;;2.75;0.60;;;7.40;99.90;;;;;;5051977;28;20041;-83
2023/04/03 09:07:32;;;;;;;0.57;0.40;;;7.50;99.90;;;;;;5051082;28;20128;-84
2023/04/03 09:10:01;;;;;;;1.25;0.43;;;7.60;99.90;;;;;;5051606;28;20237;-82
2023/04/03 09:12:39;;;;;;;3.83;1.00;;;8.10;99.90;;;;;;5034960;28;20052;-81
2023/04/03 09:15:24;;;;;;;6.70;0.70;;;7.60;99.90;;;;;;5051622;28;20067;-81
2023/04/03 09:18:06;;;;;;;1.90;0.60;;;7.70;99.90;;;;;;5051661;28;20053;-82
2023/04/03 09:21:12;;;;;;;2.35;0.75;;;7.80;99.90;;;;;;5032320;28;20072;-81
2023/04/03 09:23:47;;;;;;;1.05;0.45;;;8.70;99.90;;;;;;5014828;28;20053;-82
2023/04/03 09:26:16;;;;;;;;;;;8.30;99.90;;;;;;5015753;28;20171;-82
2023/04/03 09:28:42;;;;;;;2.20;0.60;;;8.20;99.80;;;;;;5014958;28;19928;-82
2023/04/03 09:31:29;;;;;;;2.55;0.77;;;8.30;99.90;;;;;;5015023;28;20103;-83
2023/04/03 09:34:00;;;;;;;0.70;0.30;;;8.50;99.10;;;;;;5014301;28;20116;-82
2023/04/03 09:36:44;;;;;;;0.70;0.30;;;9.20;99.90;;;;;;5031164;28;20522;-83
2023/04/03 09:39:23;;;;;;;2.88;0.50;;;8.70;99.90;;;;;;5012925;28;20068;-82
2023/04/03 09:41:58;;;;;;;1.65;0.43;;;8.90;99.90;;;;;;4998437;28;20445;-83
2023/04/03 09:44:37;;;;;;;0.98;0.30;;;9.00;99.50;;;;;;5014229;28;20046;-83
2023/04/03 09:47:22;;;;;;;0.52;0.30;;;9.60;98.70;;;;;;5014619;28;20227;-83
2023/04/03 09:49:48;;;;;;;2.40;1.05;;;9.30;97.00;;;;;;5030906;28;20534;-83
2023/04/03 09:52:24;;;;;;;2.60;0.88;;;9.20;95.00;;;;;;5030865;28;20156;-82
2023/04/03 09:54:51;;;;;;;0.95;0.38;;;9.30;94.90;;;;;;5029903;28;20615;-83
2023/04/03 09:57:18;;;;;;;1.48;0.30;;;9.50;96.20;;;;;;5030645;28;20067;-83
2023/04/03 09:59:44;;;;;;;1.55;0.60;;;9.50;97.70;;;;;;5047240;28;20063;-82
2023/04/03 10:02:38;;;;;;;1.85;0.47;;;9.70;97.50;;;;;;5063171;28;20037;-81
2023/04/03 10:05:30;;;;;;;1.13;0.30;;;9.70;94.70;;;;;;5056597;28;20063;-85
2023/04/03 10:08:15;;;;;;;0.95;0.43;;;9.60;91.60;;;;;;5062286;28;20113;-82
2023/04/03 10:10:42;;;;;;;3.38;0.47;;;9.80;92.30;;;;;;5048389;28;20489;-82
2023/04/03 10:13:13;;;;;;;1.85;0.80;;;9.60;93.40;;;;;;5042851;28;20073;-82
2023/04/03 10:15:46;;;;;;;1.38;0.40;;;9.40;91.10;;;;;;5060912;28;20041;-81
2023/04/03 10:18:42;;;;;;;1.30;0.40;;;9.60;93.20;;;;;;5060625;28;20076;-81
2023/04/03 10:21:35;;;;;;;0.80;0.20;;;9.50;92.20;;;;;;5040992;28;20155;-83
2023/04/03 10:24:14;;;;;;;1.42;0.50;;;9.60;92.60;;;;;;5014367;28;20550;-83
2023/04/03 10:26:53;;;;;;;1.10;0.40;;;9.80;94.10;;;;;;5030881;28;20112;-86
2023/04/03 10:29:37;;;;;;;1.08;0.40;;;10.00;92.50;;;;;;5033108;28;20053;-83
2023/04/03 10:32:47;;;;;;;2.20;0.40;;;10.10;93.90;;;;;;5041254;28;20132;-83
2023/04/03 10:35:39;;;;;;;0.30;0.22;;;10.30;90.40;;;;;;5018279;28;20076;-83
2023/04/03 10:38:13;;;;;;;0.93;0.30;;;10.20;90.20;;;;;;5021755;28;20057;-81
2023/04/03 10:40:47;;;;;;;2.15;0.30;;;10.30;90.10;;;;;;5040438;28;20046;-82
2023/04/03 10:43:23;;;;;;;0.80;0.30;;;10.40;90.50;;;;;;5041437;28;20468;-83
2023/04/03 10:46:21;;;;;;;1.90;0.40;;;10.40;91.80;;;;;;5016425;28;20536;-84
2023/04/03 10:48:52;;;;;;;1.42;0.40;;;10.50;91.70;;;;;;5044890;28;20045;-82
2023/04/03 10:51:34;;;;;;;0.50;0.40;;;10.40;85.20;;;;;;5044838;28;20537;-82
2023/04/03 10:54:12;;;;;;;0.98;0.30;;;10.40;87.10;;;;;;5034246;28;20065;-83
2023/04/03 10:57:01;;;;;;;0.90;0.40;;;10.40;86.20;;;;;;5034850;28;20060;-83
2023/04/03 10:59:38;;;;;;;0.98;0.30;;;10.50;86.40;;;;;;5065161;28;20076;-83
2023/04/03 11:02:23;;;;;;;1.83;0.40;;;10.60;89.20;;;;;;5052630;28;20042;-82
2023/04/03 11:04:55;;;;;;;1.75;0.30;;;10.80;90.20;;;;;;5063933;28;20049;-84
2023/04/03 11:07:23;;;;;;;0.45;0.20;;;10.90;85.70;;;;;;5066403;28;20123;-88
2023/04/03 11:09:58;;;;;;;3.10;0.30;;;11.00;89.60;;;;;;5055634;28;20052;-82
2023/04/03 11:12:27;;;;;;;0.57;0.30;;;11.10;88.30;;;;;;5043890;28;20051;-85
2023/04/03 11:14:56;;;;;;;1.95;0.30;;;11.20;87.20;;;;;;5063196;28;20048;-84
2023/04/03 11:17:35;;;;;;;1.60;0.30;;;11.20;83.70;;;;;;5063477;28;20037;-84
2023/04/03 11:20:19;;;;;;;0.95;0.20;;;11.00;82.30;;;;;;5064510;28;20044;-85
2023/04/03 11:22:51;;;;;;;1.30;0.20;;;11.00;86.70;;;;;;5065880;28;20093;-83
2023/04/03 11:25:22;;;;;;;0.70;0.30;;;11.40;81.80;;;;;;5067047;28;20055;-83
2023/04/03 11:27:51;;;;;;;0.57;0.20;;;10.60;80.90;;;;;;5065615;28;20133;-83
2023/04/03 11:30:25;;;;;;;0.68;0.20;;;11.20;80.90;;;;;;5063230;28;20409;-83
2023/04/03 11:33:09;;;;;;;0.90;0.20;;;11.10;83.90;;;;;;5061536;28;20412;-84
2023/04/03 11:35:37;;;;;;;2.10;0.30;;;11.10;80.30;;;;;;5062973;28;20132;-83
2023/04/03 11:38:08;;;;;;;0.43;0.20;;;11.10;79.20;;;;;;5065300;28;20069;-87
2023/04/03 11:40:36;;;;;;;2.13;0.57;;;11.10;77.20;;;;;;5058481;28;20497;-84
2023/04/03 11:43:07;;;;;;;1.08;0.20;;;11.10;80.20;;;;;;5055074;28;20048;-84
2023/04/03 11:45:38;;;;;;;1.20;0.30;;;11.00;77.80;;;;;;5061075;28;20163;-83
2023/04/03 11:48:29;;;;;;;0.85;0.38;;;11.00;77.40;;;;;;5064956;28;20044;-84
2023/04/03 11:51:02;;;;;;;0.75;0.30;;;11.20;77.00;;;;;;5062049;28;20114;-86
2023/04/03 11:53:39;;;;;;;0.65;0.22;;;11.10;78.30;;;;;;5062540;28;20098;-85
2023/04/03 11:56:23;;;;;;;2.85;0.40;;;11.10;77.20;;;;;;5055088;28;20043;-87
2023/04/03 11:59:11;;;;;;;1.55;0.30;;;11.10;77.40;;;;;;5058497;28;20488;-85
2023/04/03 12:01:54;;;;;;;0.70;0.20;;;11.10;79.40;;;;;;5057565;28;20128;-87
2023/04/03 12:04:27;;;;;;;0.32;0.22;;;11.10;77.40;;;;;;5061450;28;20045;-85
2023/04/03 12:07:04;;;;;;;1.88;0.20;;;11.20;79.00;;;;;;5062210;28;20076;-85
2023/04/03 12:09:35;;;;;;;0.98;0.30;;;10.90;73.60;;;;;;5064558;28;20058;-85
2023/04/03 12:12:25;;;;;;;2.92;0.30;;;11.10;80.00;;;;;;5062294;28;20562;-82
2023/04/03 12:14:52;;;;;;;1.10;0.30;;;11.20;80.00;;;;;;5035296;28;20072;-85
2023/04/03 12:17:27;;;;;;;2.53;0.38;;;11.60;80.30;;;;;;5054730;28;20045;-85
2023/04/03 12:19:53;;;;;;;1.17;0.20;;;11.30;80.10;;;;;;5060630;28;20055;-85
2023/04/03 12:22:21;;;;;;;1.17;0.30;;;11.50;80.50;;;;;;5064611;28;20128;-85
2023/04/03 12:24:52;;;;;;;2.30;0.30;;;11.50;79.90;;;;;;5060053;28;20037;-86
2023/04/03 12:27:38;;;;;;;0.38;0.30;;;11.60;76.10;;;;;;5063844;28;20413;-85
2023/04/03 12:30:03;;;;;;;;;;;11.80;79.60;;;;;;5065019;28;20052;-85
2023/04/03 12:32:41;;;;;;;1.10;0.30;;;11.70;76.80;;;;;;5048136;28;19927;-86
2023/04/03 12:35:10;;;;;;;1.13;0.20;;;11.70;78.80;;;;;;5064092;28;20503;-87
2023/04/03 12:37:55;;;;;;;2.03;0.40;;;11.70;78.20;;;;;;5061175;28;20083;-86
2023/04/03 12:40:46;;;;;;;2.37;0.40;;;11.90;76.90;;;;;;5064169;28;20136;-86
2023/04/03 12:43:20;;;;;;;1.25;0.28;;;11.70;76.70;;;;;;5063929;28;20135;-86
2023/04/03 12:46:02;;;;;;;0.98;0.40;;;11.90;76.10;;;;;;5064382;28;20058;-87
2023/04/03 12:48:31;;;;;;;1.10;0.35;;;11.70;79.20;;;;;;5060492;28;20041;-89
2023/04/03 12:50:58;;;;;;;0.82;0.30;;;12.00;78.50;;;;;;5050951;28;20123;-86
2023/04/03 12:53:34;;;;;;;1.05;0.30;;;12.10;78.70;;;;;;5054912;28;20059;-87
2023/04/03 12:56:20;;;;;;;1.38;0.25;;;12.30;82.90;;;;;;5052839;28;20060;-86
2023/04/03 12:58:50;;;;;;;0.93;0.30;;;12.40;78.40;;;;;;5052771;28;20053;-87
2023/04/03 13:01:21;;;;;;;2.13;0.30;;;12.30;76.10;;;;;;5053249;28;20055;-86
2023/04/03 13:03:55;;;;;;;0.70;0.30;;;12.30;76.10;;;;;;5053101;28;20519;-85
2023/04/03 13:06:41;;;;;;;0.43;0.20;;;12.30;75.50;;;;;;5052761;28;20501;-85
2023/04/03 13:09:18;;;;;;;1.30;0.40;;;12.40;75.40;;;;;;5053006;28;20078;-86